Time;durP1;ratioP1;P1;durP2;ratioP2;P2;SDS_P1;SDS_P2;PMS_P1;PMS_P2;Temp;Humidity;BMP_temperature;BMP_pressure;BME280_temperature;BME280_humidity;BME280_pressure;Samples;Min_cycle;Max_cycle;Signal;HPM_P1;HPM_P2
2023/09/24 00:01:00;;;;;;;13.40;2.72;;;;;;;13.40;100.00;100386.91;5072741;28;20041;-66
2023/09/24 00:03:27;;;;;;;10.55;2.30;;;;;;;13.44;100.00;100381.41;5063430;28;20087;-67
2023/09/24 00:05:54;;;;;;;11.27;2.75;;;;;;;13.41;100.00;100376.31;5060433;28;20076;-66
2023/09/24 00:08:21;;;;;;;11.32;3.17;;;;;;;13.09;100.00;100351.75;5065340;28;20052;-67
2023/09/24 00:10:55;;;;;;;13.63;2.50;;;;;;;13.38;100.00;100373.84;5063319;28;20415;-67
2023/09/24 00:13:22;;;;;;;16.67;3.00;;;;;;;13.29;100.00;100366.44;5066882;28;20056;-66
2023/09/24 00:15:50;;;;;;;12.85;3.00;;;;;;;13.29;100.00;100371.69;5064399;28;20410;-67
2023/09/24 00:18:17;;;;;;;13.55;2.75;;;;;;;13.24;100.00;100358.81;5068123;28;20043;-66
2023/09/24 00:20:44;;;;;;;19.15;3.92;;;;;;;13.36;100.00;100367.81;5071313;28;20492;-67
2023/09/24 00:23:11;;;;;;;10.00;2.67;;;;;;;13.22;100.00;100378.22;5073045;28;20060;-66
2023/09/24 00:25:37;;;;;;;15.23;3.35;;;;;;;13.24;100.00;100371.09;5064739;28;20056;-66
2023/09/24 00:28:04;;;;;;;11.85;2.67;;;;;;;13.38;100.00;100386.16;5066851;28;20055;-66
2023/09/24 00:30:33;;;;;;;14.60;3.33;;;;;;;13.45;100.00;100377.84;5068871;28;20059;-66
2023/09/24 00:33:00;;;;;;;16.00;3.42;;;;;;;13.20;100.00;100369.56;5070495;28;20051;-66
2023/09/24 00:35:27;;;;;;;11.32;3.42;;;;;;;13.27;100.00;100355.16;5073363;28;20607;-68
2023/09/24 00:37:54;;;;;;;12.40;2.60;;;;;;;13.53;100.00;100353.75;5064168;28;20045;-67
2023/09/24 00:40:21;;;;;;;16.60;3.50;;;;;;;13.38;100.00;100331.78;5074377;28;20060;-66
2023/09/24 00:42:50;;;;;;;17.25;3.65;;;;;;;13.25;100.00;100328.13;5075263;28;20102;-67
2023/09/24 00:45:17;;;;;;;13.68;3.35;;;;;;;13.33;100.00;100319.81;5084488;28;20052;-67
2023/09/24 00:47:45;;;;;;;11.40;3.78;;;;;;;13.47;100.00;100328.66;5054307;28;20049;-67
2023/09/24 00:50:13;;;;;;;12.43;3.30;;;;;;;13.43;100.00;100323.63;5063449;28;20482;-67
2023/09/24 00:52:43;;;;;;;16.17;3.20;;;;;;;13.33;100.00;100322.44;5060202;28;20494;-67
2023/09/24 00:55:13;;;;;;;15.45;3.15;;;;;;;13.48;100.00;100340.84;5059654;28;20056;-66
2023/09/24 00:57:41;;;;;;;11.73;2.50;;;;;;;13.51;100.00;100323.19;5056135;28;20041;-66
2023/09/24 01:00:11;;;;;;;15.60;3.40;;;;;;;13.44;100.00;100299.88;5062591;28;20053;-67
2023/09/24 01:02:39;;;;;;;13.90;3.22;;;;;;;13.54;100.00;100317.78;5062111;28;20147;-66
2023/09/24 01:05:09;;;;;;;13.13;3.13;;;;;;;13.58;100.00;100329.81;5069596;28;20134;-65
2023/09/24 01:07:37;;;;;;;13.43;2.92;;;;;;;13.48;100.00;100318.97;5068357;28;20052;-66
2023/09/24 01:10:08;;;;;;;8.73;2.65;;;;;;;13.76;100.00;100323.50;5064057;28;20052;-67
2023/09/24 01:12:39;;;;;;;11.68;3.42;;;;;;;13.77;100.00;100334.88;5060959;28;21408;-67
2023/09/24 01:15:13;;;;;;;13.73;2.70;;;;;;;13.76;100.00;100325.31;5053637;28;20053;-67
2023/09/24 01:17:40;;;;;;;14.82;3.38;;;;;;;13.77;100.00;100311.19;5060789;28;20059;-66
2023/09/24 01:20:12;;;;;;;11.10;2.78;;;;;;;13.83;100.00;100324.84;5070008;28;20052;-66
2023/09/24 01:22:42;;;;;;;12.45;3.40;;;;;;;13.82;100.00;100301.25;5071764;28;20098;-66
2023/09/24 01:25:09;;;;;;;13.85;2.80;;;;;;;13.94;100.00;100304.97;5072578;28;20048;-66
2023/09/24 01:27:35;;;;;;;12.25;3.40;;;;;;;13.66;100.00;100296.88;5068729;28;20044;-66
2023/09/24 01:30:06;;;;;;;16.83;4.13;;;;;;;13.57;100.00;100284.25;5067954;28;20052;-66
2023/09/24 01:32:34;;;;;;;13.85;3.42;;;;;;;13.72;100.00;100276.41;5072121;28;20076;-67
2023/09/24 01:35:06;;;;;;;14.43;3.85;;;;;;;13.81;100.00;100281.13;5072417;28;20055;-66
2023/09/24 01:37:35;;;;;;;14.32;3.67;;;;;;;13.56;100.00;100279.91;5071568;28;20055;-66
2023/09/24 01:40:14;;;;;;;11.23;3.35;;;;;;;13.43;100.00;100290.28;5063807;28;20480;-67
2023/09/24 01:42:42;;;;;;;11.05;2.65;;;;;;;13.55;100.00;100290.56;5075525;28;20058;-66
2023/09/24 01:45:12;;;;;;;9.93;2.72;;;;;;;13.53;100.00;100295.88;5062408;28;20040;-66
2023/09/24 01:47:40;;;;;;;10.93;2.80;;;;;;;13.55;100.00;100282.66;5073146;28;20048;-66
2023/09/24 01:50:08;;;;;;;14.35;3.60;;;;;;;13.57;100.00;100276.34;5082805;28;20128;-67
2023/09/24 01:52:36;;;;;;;10.02;2.72;;;;;;;13.54;100.00;100273.06;5073469;28;20080;-66
2023/09/24 01:55:03;;;;;;;11.27;2.50;;;;;;;13.54;100.00;100284.41;5075097;28;20497;-66
2023/09/24 01:57:31;;;;;;;9.25;2.63;;;;;;;13.20;100.00;100281.03;5074613;28;20054;-66
2023/09/24 02:00:11;;;;;;;17.70;3.40;;;;;;;13.09;100.00;100257.13;5076430;28;20735;-67
2023/09/24 02:02:38;;;;;;;11.65;2.60;;;;;;;13.08;100.00;100274.69;5065285;28;20450;-67
2023/09/24 02:05:09;;;;;;;14.02;3.20;;;;;;;13.17;100.00;100259.31;5082619;28;20101;-66
2023/09/24 02:07:38;;;;;;;12.27;2.97;;;;;;;12.82;100.00;100272.63;5069720;28;20048;-66
2023/09/24 02:10:06;;;;;;;11.18;2.88;;;;;;;12.96;100.00;100262.22;5076765;28;20089;-66
2023/09/24 02:12:38;;;;;;;14.88;3.60;;;;;;;12.84;100.00;100255.88;5075128;28;20083;-66
2023/09/24 02:15:39;;;;;;;11.57;3.40;;;;;;;12.73;100.00;100256.44;5073283;28;20048;-66
2023/09/24 02:17:58;;;;;;;;;;;;;;;12.89;100.00;100255.59;5059402;28;20387;-66
2023/09/24 02:20:31;;;;;;;13.00;3.75;;;;;;;12.78;100.00;100240.41;5058272;28;20428;-67
2023/09/24 02:23:00;;;;;;;13.27;3.75;;;;;;;12.80;100.00;100238.59;5071617;28;20044;-67
2023/09/24 02:25:29;;;;;;;15.65;3.22;;;;;;;12.77;100.00;100236.13;5071400;28;20040;-67
2023/09/24 02:27:57;;;;;;;14.30;3.42;;;;;;;12.86;100.00;100226.88;5075925;28;20472;-66
2023/09/24 02:30:27;;;;;;;19.23;4.25;;;;;;;12.52;100.00;100194.59;5078799;28;20044;-67
2023/09/24 02:32:58;;;;;;;13.75;4.47;;;;;;;12.64;100.00;100241.19;5068363;28;20048;-67
2023/09/24 02:35:26;;;;;;;14.75;3.95;;;;;;;12.69;100.00;100240.94;5077713;28;20387;-66
2023/09/24 02:37:53;;;;;;;14.02;3.67;;;;;;;12.63;100.00;100236.03;5076405;28;20249;-67
2023/09/24 02:40:22;;;;;;;12.95;3.80;;;;;;;12.47;100.00;100226.34;5076388;28;20417;-67
2023/09/24 02:42:53;;;;;;;16.15;3.35;;;;;;;12.77;100.00;100241.38;5072009;28;20428;-66
2023/09/24 02:45:20;;;;;;;21.33;4.18;;;;;;;12.67;100.00;100235.75;5066071;28;20044;-67
2023/09/24 02:47:50;;;;;;;10.95;3.03;;;;;;;12.57;100.00;100233.72;5070605;28;20059;-66
2023/09/24 02:50:21;;;;;;;12.60;3.53;;;;;;;12.32;100.00;100216.66;5068160;28;20080;-66
2023/09/24 02:52:49;;;;;;;13.38;3.13;;;;;;;12.58;100.00;100241.50;5071040;28;20056;-66
2023/09/24 02:55:17;;;;;;;10.07;3.08;;;;;;;12.61;100.00;100246.59;5070064;28;20052;-66
2023/09/24 02:57:46;;;;;;;13.75;3.63;;;;;;;12.69;100.00;100254.06;5069366;28;20056;-67
2023/09/24 03:00:27;;;;;;;13.90;2.80;;;;;;;12.71;100.00;100254.81;5070177;28;20789;-66
2023/09/24 03:02:57;;;;;;;13.75;3.58;;;;;;;12.61;100.00;100257.13;5070704;28;20048;-66
2023/09/24 03:05:26;;;;;;;14.15;2.97;;;;;;;12.61;100.00;100249.22;5056944;28;20051;-66
2023/09/24 03:07:55;;;;;;;13.60;3.28;;;;;;;12.56;100.00;100253.88;5067173;28;20059;-66
2023/09/24 03:10:23;;;;;;;13.80;3.00;;;;;;;12.69;100.00;100248.81;5078832;28;20049;-66
2023/09/24 03:12:51;;;;;;;14.15;3.60;;;;;;;12.65;100.00;100221.88;5067309;28;20516;-66
2023/09/24 03:15:19;;;;;;;12.18;3.67;;;;;;;12.56;100.00;100239.91;5078407;28;20300;-67
2023/09/24 03:17:47;;;;;;;13.35;4.15;;;;;;;12.45;100.00;100243.94;5075490;28;20382;-66
2023/09/24 03:20:17;;;;;;;23.90;4.95;;;;;;;12.39;100.00;100236.38;5073409;28;20102;-66
2023/09/24 03:22:55;;;;;;;13.65;3.58;;;;;;;12.45;100.00;100222.94;5069357;28;20054;-66
2023/09/24 03:25:24;;;;;;;17.42;3.72;;;;;;;12.44;100.00;100202.03;5078225;28;20048;-66
2023/09/24 03:27:53;;;;;;;15.70;4.03;;;;;;;12.66;100.00;100225.31;5073486;28;20056;-67
2023/09/24 03:30:20;;;;;;;11.00;3.83;;;;;;;12.58;100.00;100207.38;5071132;28;20044;-66
2023/09/24 03:32:49;;;;;;;13.77;4.70;;;;;;;12.69;100.00;100233.03;5071310;28;20485;-66
2023/09/24 03:35:19;;;;;;;21.15;5.00;;;;;;;12.65;100.00;100234.16;5079343;28;20063;-66
2023/09/24 03:37:46;;;;;;;14.18;4.28;;;;;;;12.63;100.00;100202.72;5070317;28;20048;-66
2023/09/24 03:40:16;;;;;;;16.20;3.42;;;;;;;12.81;100.00;100231.53;5069790;28;20048;-66
2023/09/24 03:42:44;;;;;;;12.38;3.30;;;;;;;12.84;100.00;100239.25;5072660;28;20067;-66
2023/09/24 03:45:16;;;;;;;18.65;4.20;;;;;;;12.78;100.00;100240.41;5069166;28;20114;-66
2023/09/24 03:47:43;;;;;;;15.43;3.80;;;;;;;12.80;100.00;100240.34;5074423;28;20459;-66
2023/09/24 03:50:13;;;;;;;14.95;4.03;;;;;;;12.75;100.00;100237.97;5085914;28;20052;-66
2023/09/24 03:52:41;;;;;;;17.88;4.85;;;;;;;12.50;100.00;100230.56;5070316;28;20070;-67
2023/09/24 03:55:12;;;;;;;11.60;3.90;;;;;;;12.71;100.00;100218.03;5067500;28;20072;-66
2023/09/24 03:57:39;;;;;;;13.10;3.50;;;;;;;12.80;100.00;100214.06;5072771;28;20401;-66
2023/09/24 04:00:18;;;;;;;14.15;3.67;;;;;;;12.77;100.00;100207.22;5070846;28;20068;-66
2023/09/24 04:02:47;;;;;;;15.52;3.15;;;;;;;12.83;100.00;100206.88;5071421;28;20055;-66
2023/09/24 04:05:17;;;;;;;19.20;3.28;;;;;;;12.77;100.00;100199.34;5078906;28;20131;-67
2023/09/24 04:07:49;;;;;;;13.20;3.20;;;;;;;12.70;100.00;100184.84;5070033;28;20044;-66
2023/09/24 04:10:17;;;;;;;12.35;3.45;;;;;;;12.84;100.00;100195.44;5068314;28;20098;-66
2023/09/24 04:12:49;;;;;;;10.30;3.20;;;;;;;12.72;100.00;100196.94;5067470;28;20062;-66
2023/09/24 04:15:20;;;;;;;11.02;2.95;;;;;;;12.81;100.00;100192.13;5058356;28;20106;-66
2023/09/24 04:17:49;;;;;;;17.40;3.38;;;;;;;12.78;100.00;100184.41;5070853;28;20425;-66
2023/09/24 04:20:17;;;;;;;12.38;3.47;;;;;;;12.85;100.00;100183.13;5076478;28;20139;-66
2023/09/24 04:22:44;;;;;;;19.08;4.88;;;;;;;12.75;100.00;100187.19;5067997;28;20059;-67
2023/09/24 04:25:14;;;;;;;14.05;3.78;;;;;;;12.76;100.00;100181.03;5072114;28;20053;-66
2023/09/24 04:27:42;;;;;;;13.02;3.03;;;;;;;12.87;100.00;100171.63;5062567;28;20142;-66
2023/09/24 04:30:15;;;;;;;15.80;3.83;;;;;;;12.88;100.00;100193.47;5067243;28;20102;-67
2023/09/24 04:32:47;;;;;;;23.52;5.63;;;;;;;12.88;100.00;100189.06;5073423;28;20462;-67
2023/09/24 04:35:14;;;;;;;25.25;5.18;;;;;;;12.87;100.00;100186.53;5072359;28;20377;-66
2023/09/24 04:37:41;;;;;;;23.05;4.32;;;;;;;13.05;100.00;100189.91;5073433;28;20512;-67
2023/09/24 04:40:16;;;;;;;15.43;4.43;;;;;;;13.03;100.00;100170.75;5071382;28;20063;-66
2023/09/24 04:42:47;;;;;;;23.30;5.82;;;;;;;12.92;100.00;100160.84;5074819;28;20056;-66
2023/09/24 04:45:14;;;;;;;24.88;5.57;;;;;;;12.90;100.00;100167.97;5067866;28;20061;-66
2023/09/24 04:47:42;;;;;;;28.80;5.97;;;;;;;12.97;100.00;100142.19;5068158;28;20114;-67
2023/09/24 04:50:12;;;;;;;23.05;5.75;;;;;;;12.97;100.00;100160.59;5069727;28;20053;-67
2023/09/24 04:52:41;;;;;;;25.15;5.75;;;;;;;13.13;100.00;100168.44;5069448;28;20410;-67
2023/09/24 04:55:09;;;;;;;16.65;4.13;;;;;;;13.22;100.00;100160.88;5065633;28;20045;-66
2023/09/24 04:57:36;;;;;;;17.98;5.05;;;;;;;13.27;100.00;100161.44;5068340;28;20490;-66
2023/09/24 05:00:03;;;;;;;23.50;5.68;;;;;;;13.10;100.00;100161.56;5067104;28;20056;-66
2023/09/24 05:02:30;;;;;;;15.63;5.28;;;;;;;13.16;100.00;100174.38;5068710;28;20090;-66
2023/09/24 05:04:57;;;;;;;23.27;4.95;;;;;;;13.18;100.00;100175.13;5066624;28;20430;-66
2023/09/24 05:07:24;;;;;;;17.60;4.38;;;;;;;13.19;100.00;100152.31;5067033;28;20392;-66
2023/09/24 05:09:54;;;;;;;20.08;5.28;;;;;;;13.29;100.00;100162.19;5068855;28;20470;-66
2023/09/24 05:12:22;;;;;;;28.65;7.03;;;;;;;13.28;100.00;100175.47;5068547;28;20398;-66
2023/09/24 05:14:49;;;;;;;21.55;5.00;;;;;;;13.40;100.00;100163.41;5070766;28;20088;-67
2023/09/24 05:17:16;;;;;;;17.55;5.63;;;;;;;13.34;100.00;100155.88;5069056;28;20489;-66
2023/09/24 05:19:43;;;;;;;20.52;5.93;;;;;;;13.19;100.00;100168.09;5072164;28;20047;-66
2023/09/24 05:22:09;;;;;;;20.42;5.63;;;;;;;13.27;100.00;100160.63;5074798;28;20109;-67
2023/09/24 05:24:36;;;;;;;17.70;5.13;;;;;;;13.33;100.00;100167.31;5078079;28;20048;-67
2023/09/24 05:27:03;;;;;;;25.90;5.28;;;;;;;13.30;100.00;100163.91;5073431;28;20056;-66
2023/09/24 05:29:31;;;;;;;20.30;4.60;;;;;;;13.43;100.00;100163.22;5081808;28;20052;-67
2023/09/24 05:32:00;;;;;;;15.75;4.38;;;;;;;13.54;100.00;100166.06;5071226;28;20080;-66
2023/09/24 05:34:28;;;;;;;16.63;3.90;;;;;;;13.59;100.00;100165.81;5085166;28;20485;-67
2023/09/24 05:36:55;;;;;;;20.98;4.95;;;;;;;13.39;100.00;100151.22;5075883;28;20097;-66
2023/09/24 05:39:21;;;;;;;20.27;5.05;;;;;;;13.43;100.00;100150.06;5072386;28;20230;-67
2023/09/24 05:41:48;;;;;;;17.05;4.40;;;;;;;13.37;100.00;100153.06;5072895;28;20052;-66
2023/09/24 05:44:16;;;;;;;25.20;5.50;;;;;;;13.47;100.00;100149.81;5073634;28;20346;-66
2023/09/24 05:46:43;;;;;;;14.93;3.97;;;;;;;13.51;100.00;100139.97;5066567;28;20642;-66
2023/09/24 05:49:10;;;;;;;13.60;3.42;;;;;;;13.57;100.00;100142.22;5078295;28;20056;-66
2023/09/24 05:51:36;;;;;;;11.45;3.17;;;;;;;13.66;100.00;100144.28;5073420;28;20474;-66
2023/09/24 05:54:03;;;;;;;17.80;4.00;;;;;;;13.48;100.00;100140.97;5079632;28;20040;-67
2023/09/24 05:56:30;;;;;;;11.93;3.40;;;;;;;13.44;100.00;100142.09;5080103;28;20044;-66
2023/09/24 05:58:57;;;;;;;15.43;5.15;;;;;;;13.52;100.00;100144.28;5071476;28;20126;-66
2023/09/24 06:01:23;;;;;;;11.18;3.22;;;;;;;13.53;100.00;100142.47;5080219;28;20062;-66
2023/09/24 06:03:50;;;;;;;14.43;3.88;;;;;;;13.57;100.00;100141.38;5078363;28;20048;-67
2023/09/24 06:06:17;;;;;;;18.80;4.40;;;;;;;13.39;100.00;100088.09;5075270;28;20045;-66
2023/09/24 06:08:44;;;;;;;17.88;3.72;;;;;;;13.47;100.00;100130.53;5071264;28;20053;-66
2023/09/24 06:11:11;;;;;;;13.48;3.85;;;;;;;13.67;100.00;100134.63;5076930;28;20059;-66
2023/09/24 06:13:37;;;;;;;17.25;3.80;;;;;;;13.66;100.00;100125.88;5072906;28;20604;-66
2023/09/24 06:16:05;;;;;;;18.13;4.30;;;;;;;13.66;100.00;100127.66;5074729;28;20053;-66
2023/09/24 06:18:35;;;;;;;15.75;4.03;;;;;;;13.67;100.00;100130.22;5074008;28;20118;-66
2023/09/24 06:21:05;;;;;;;17.38;4.63;;;;;;;13.55;100.00;100125.69;5086935;28;20048;-67
2023/09/24 06:23:32;;;;;;;19.02;4.70;;;;;;;13.73;100.00;100131.63;5075842;28;20428;-67
2023/09/24 06:25:59;;;;;;;15.27;3.83;;;;;;;13.69;100.00;100127.50;5076031;28;20040;-68
2023/09/24 06:28:26;;;;;;;10.68;3.03;;;;;;;13.69;100.00;100127.50;5068045;28;20478;-67
2023/09/24 06:31:00;;;;;;;15.00;3.60;;;;;;;13.74;100.00;100127.19;5073580;28;20466;-67
2023/09/24 06:33:31;;;;;;;19.23;4.57;;;;;;;13.59;100.00;100121.91;5071827;28;20071;-67
2023/09/24 06:36:04;;;;;;;22.88;4.97;;;;;;;13.65;100.00;100134.72;5086901;28;20131;-67
2023/09/24 06:38:32;;;;;;;11.87;3.37;;;;;;;13.66;100.00;100139.03;5067138;28;20052;-66
2023/09/24 06:41:02;;;;;;;14.32;4.03;;;;;;;13.75;100.00;100142.06;5068029;28;20289;-66
2023/09/24 06:43:29;;;;;;;16.33;4.03;;;;;;;13.84;100.00;100147.59;5076074;28;20047;-66
2023/09/24 06:45:56;;;;;;;13.10;3.83;;;;;;;13.75;100.00;100129.75;5064742;28;20041;-66
2023/09/24 06:48:25;;;;;;;9.48;3.35;;;;;;;13.78;100.00;100116.41;5069264;28;20052;-66
2023/09/24 06:50:55;;;;;;;12.60;3.60;;;;;;;13.90;100.00;100121.84;5064783;28;20049;-67
2023/09/24 06:53:23;;;;;;;11.75;2.85;;;;;;;13.99;100.00;100108.16;5061542;28;20482;-66
2023/09/24 06:55:50;;;;;;;12.23;3.30;;;;;;;13.97;100.00;100113.50;5059857;28;20367;-66
2023/09/24 06:58:17;;;;;;;12.57;3.33;;;;;;;13.87;100.00;100109.75;5063701;28;20051;-66
2023/09/24 07:00:44;;;;;;;14.25;3.75;;;;;;;13.82;100.00;100102.13;5068523;28;20059;-66
2023/09/24 07:03:10;;;;;;;15.88;3.38;;;;;;;13.79;100.00;100098.81;5093732;28;20056;-67
2023/09/24 07:05:37;;;;;;;17.05;4.40;;;;;;;13.76;100.00;100091.16;5065586;28;20045;-66
2023/09/24 07:08:05;;;;;;;14.07;4.20;;;;;;;13.91;100.00;100113.88;5060051;28;20182;-66
2023/09/24 07:10:31;;;;;;;18.05;4.88;;;;;;;13.88;100.00;100092.16;5083736;28;20184;-67
2023/09/24 07:12:58;;;;;;;19.92;4.35;;;;;;;13.91;100.00;100111.22;5070681;28;20474;-67
2023/09/24 07:15:25;;;;;;;14.48;4.10;;;;;;;13.75;100.00;100098.16;5071665;28;20043;-66
2023/09/24 07:17:52;;;;;;;16.08;4.30;;;;;;;13.83;100.00;100116.13;5068982;28;20127;-67
2023/09/24 07:20:20;;;;;;;14.02;4.07;;;;;;;14.09;100.00;100124.19;5072702;28;20052;-66
2023/09/24 07:22:47;;;;;;;15.82;3.78;;;;;;;14.03;100.00;100112.28;5063416;28;20391;-66
2023/09/24 07:25:14;;;;;;;18.33;4.65;;;;;;;14.09;100.00;100113.66;5078170;28;20043;-67
2023/09/24 07:27:41;;;;;;;22.27;5.80;;;;;;;14.16;100.00;100122.88;5075317;28;20059;-66
2023/09/24 07:30:09;;;;;;;13.70;3.28;;;;;;;14.16;100.00;100128.13;5065924;28;20060;-66
2023/09/24 07:32:39;;;;;;;15.70;4.57;;;;;;;14.20;100.00;100125.22;5077119;28;20052;-67
2023/09/24 07:35:09;;;;;;;15.18;4.20;;;;;;;14.18;100.00;100121.00;5088367;28;20048;-66
2023/09/24 07:37:36;;;;;;;23.25;4.38;;;;;;;14.22;100.00;100125.16;5064213;28;20048;-67
2023/09/24 07:40:05;;;;;;;16.13;4.65;;;;;;;14.21;100.00;100126.06;5075020;28;20057;-67
2023/09/24 07:42:31;;;;;;;11.80;3.45;;;;;;;14.24;100.00;100124.09;5070159;28;20142;-66
2023/09/24 07:44:58;;;;;;;9.25;2.65;;;;;;;14.38;100.00;100133.75;5070461;28;20052;-67
2023/09/24 07:47:25;;;;;;;13.52;2.85;;;;;;;14.41;100.00;100123.03;5068442;28;20048;-67
2023/09/24 07:49:52;;;;;;;15.50;3.90;;;;;;;14.21;100.00;100110.28;5063071;28;20418;-67
2023/09/24 07:52:19;;;;;;;10.80;3.03;;;;;;;14.30;100.00;100133.38;5064065;28;20049;-66
2023/09/24 07:54:45;;;;;;;15.30;3.63;;;;;;;14.38;100.00;100119.75;5077398;28;20044;-66
2023/09/24 07:57:14;;;;;;;10.02;2.92;;;;;;;14.30;100.00;100112.31;5067664;28;20486;-67
2023/09/24 07:59:41;;;;;;;10.23;2.47;;;;;;;14.40;100.00;100115.22;5057111;28;20044;-67
2023/09/24 08:02:08;;;;;;;12.70;3.33;;;;;;;14.15;100.00;100074.66;5059724;28;20056;-66
2023/09/24 08:04:34;;;;;;;14.48;3.75;;;;;;;14.53;100.00;100100.31;5068678;28;20467;-66
2023/09/24 08:07:01;;;;;;;7.20;2.42;;;;;;;14.47;100.00;100111.25;5055761;28;20549;-67
2023/09/24 08:09:29;;;;;;;12.38;3.08;;;;;;;14.59;100.00;100107.03;5069275;28;20071;-66
2023/09/24 08:11:56;;;;;;;15.43;3.58;;;;;;;14.54;100.00;100123.09;5065667;28;20117;-66
2023/09/24 08:14:24;;;;;;;9.98;2.50;;;;;;;14.71;100.00;100105.38;5069042;28;20064;-66
2023/09/24 08:16:50;;;;;;;13.75;2.80;;;;;;;14.51;100.00;100082.94;5066844;28;20048;-67
2023/09/24 08:19:17;;;;;;;12.38;2.45;;;;;;;14.65;100.00;100100.53;5076460;28;20047;-65
2023/09/24 08:21:44;;;;;;;8.50;2.03;;;;;;;14.73;100.00;100106.13;5072918;28;20045;-66
2023/09/24 08:24:11;;;;;;;11.10;2.25;;;;;;;14.83;100.00;100119.56;5056192;28;20048;-66
2023/09/24 08:26:37;;;;;;;10.93;2.67;;;;;;;14.76;100.00;100119.09;5062899;28;20048;-66
2023/09/24 08:29:06;;;;;;;14.25;2.80;;;;;;;14.85;100.00;100125.56;5063804;28;20056;-66
2023/09/24 08:31:34;;;;;;;11.20;2.97;;;;;;;14.82;100.00;100129.28;5066095;28;20063;-66
2023/09/24 08:34:01;;;;;;;11.15;2.45;;;;;;;14.86;100.00;100119.38;5050523;28;20045;-67
2023/09/24 08:36:29;;;;;;;8.68;2.13;;;;;;;14.91;100.00;100117.25;5066117;28;20045;-66
2023/09/24 08:38:56;;;;;;;8.10;1.92;;;;;;;14.99;100.00;100109.69;5063253;28;20387;-67
2023/09/24 08:41:24;;;;;;;9.90;2.17;;;;;;;15.06;100.00;100113.63;5064805;28;20093;-66
2023/09/24 08:43:55;;;;;;;12.10;2.67;;;;;;;14.70;100.00;100107.19;5070541;28;20765;-67
2023/09/24 08:46:22;;;;;;;10.07;2.25;;;;;;;14.81;100.00;100107.31;5061703;28;20095;-67
2023/09/24 08:48:52;;;;;;;11.40;2.33;;;;;;;14.82;100.00;100108.19;5068297;28;20056;-68
2023/09/24 08:51:20;;;;;;;7.55;2.00;;;;;;;14.90;100.00;100120.84;5058838;28;20052;-67
2023/09/24 08:53:46;;;;;;;6.53;1.77;;;;;;;14.96;100.00;100130.97;5067221;28;20077;-67
2023/09/24 08:56:13;;;;;;;11.18;1.95;;;;;;;14.90;100.00;100112.94;5062381;28;20059;-67
2023/09/24 08:58:42;;;;;;;7.30;1.80;;;;;;;14.94;100.00;100102.09;5065992;28;20049;-67
2023/09/24 09:01:10;;;;;;;10.43;2.65;;;;;;;14.93;100.00;100102.22;5068195;28;20490;-67
2023/09/24 09:03:37;;;;;;;9.30;2.58;;;;;;;14.88;100.00;100078.78;5061614;28;20049;-66
2023/09/24 09:06:04;;;;;;;8.75;2.33;;;;;;;14.91;100.00;100098.81;5071897;28;20041;-66
2023/09/24 09:08:51;;;;;;;7.57;2.03;;;;;;;15.00;100.00;100106.13;5071049;28;20479;-66
2023/09/24 09:11:19;;;;;;;12.25;2.55;;;;;;;14.86;100.00;100093.84;5056727;28;20542;-66
2023/09/24 09:13:48;;;;;;;10.45;2.53;;;;;;;14.85;100.00;100097.41;5066746;28;20072;-65
2023/09/24 09:16:16;;;;;;;7.35;2.05;;;;;;;14.97;100.00;100108.97;5067081;28;20155;-66
2023/09/24 09:18:57;;;;;;;7.20;2.30;;;;;;;14.99;100.00;100105.25;5070721;28;20055;-66
2023/09/24 09:21:27;;;;;;;8.27;2.22;;;;;;;14.98;100.00;100103.59;5069037;28;20048;-66
2023/09/24 09:23:55;;;;;;;11.65;2.83;;;;;;;14.99;100.00;100113.16;5074740;28;20432;-67
2023/09/24 09:26:28;;;;;;;9.80;3.22;;;;;;;15.08;100.00;100124.91;5058911;28;20109;-67
2023/09/24 09:28:55;;;;;;;10.88;2.40;;;;;;;15.06;100.00;100118.06;5056333;28;20064;-67
2023/09/24 09:31:22;;;;;;;11.23;2.03;;;;;;;15.09;100.00;100100.22;5070224;28;20056;-67
2023/09/24 09:33:49;;;;;;;8.18;2.25;;;;;;;15.05;100.00;100122.50;5071768;28;20040;-67
2023/09/24 09:36:28;;;;;;;8.55;2.35;;;;;;;15.17;100.00;100134.00;5067989;28;20127;-67
2023/09/24 09:39:00;;;;;;;8.60;2.03;;;;;;;15.16;100.00;100121.78;5066370;28;20060;-67
2023/09/24 09:41:26;;;;;;;12.75;1.90;;;;;;;15.12;100.00;100109.72;5068790;28;20175;-67
2023/09/24 09:43:53;;;;;;;10.73;2.65;;;;;;;15.14;100.00;100118.41;5067645;28;20044;-67
2023/09/24 09:46:24;;;;;;;9.02;2.53;;;;;;;15.12;100.00;100112.34;5068777;28;20055;-67
2023/09/24 09:48:56;;;;;;;9.48;2.25;;;;;;;15.07;100.00;100112.69;5058100;28;20064;-66
2023/09/24 09:51:25;;;;;;;17.98;2.90;;;;;;;15.11;100.00;100114.16;5062485;28;20052;-66
2023/09/24 09:54:08;;;;;;;7.32;2.17;;;;;;;15.25;100.00;100107.97;5074941;28;20051;-67
2023/09/24 09:56:36;;;;;;;7.72;2.30;;;;;;;15.32;100.00;100105.78;5064572;28;20394;-69
2023/09/24 09:59:04;;;;;;;9.93;2.60;;;;;;;15.25;100.00;100101.84;5067544;28;20045;-69
2023/09/24 10:01:31;;;;;;;8.50;2.20;;;;;;;15.30;100.00;100097.13;5064123;28;20053;-70
2023/09/24 10:04:02;;;;;;;8.52;2.05;;;;;;;15.40;100.00;100089.41;5062457;28;20048;-70
2023/09/24 10:06:34;;;;;;;9.82;2.55;;;;;;;15.42;100.00;100093.63;5062310;28;20053;-69
2023/09/24 10:09:01;;;;;;;9.80;2.53;;;;;;;15.35;100.00;100087.94;5059175;28;20048;-70
2023/09/24 10:11:31;;;;;;;6.95;2.05;;;;;;;15.50;100.00;100086.03;5065075;28;20132;-70
2023/09/24 10:13:58;;;;;;;8.35;2.35;;;;;;;15.53;100.00;100082.38;5069850;28;20044;-70
2023/09/24 10:16:25;;;;;;;9.52;2.17;;;;;;;15.54;100.00;100090.16;5068573;28;20056;-70
2023/09/24 10:19:12;;;;;;;8.88;2.40;;;;;;;15.67;100.00;100089.31;5069212;28;20487;-69
2023/09/24 10:21:39;;;;;;;5.78;1.98;;;;;;;15.76;100.00;100096.63;5055987;28;20053;-69
2023/09/24 10:24:47;;;;;;;6.82;2.35;;;;;;;15.66;100.00;100093.75;5069402;28;20098;-70
2023/09/24 10:27:13;;;;;;;10.25;3.10;;;;;;;15.51;100.00;100074.56;5057865;28;20055;-70
2023/09/24 10:29:44;;;;;;;11.75;2.60;;;;;;;15.72;100.00;100095.97;5066036;28;20053;-69
2023/09/24 10:32:17;;;;;;;8.32;2.65;;;;;;;15.68;100.00;100086.56;5054693;28;20080;-70
2023/09/24 10:34:53;;;;;;;6.97;2.28;;;;;;;15.87;100.00;100078.25;5066538;28;20494;-69
2023/09/24 10:37:22;;;;;;;7.57;2.30;;;;;;;15.71;100.00;100054.69;5067768;28;20048;-70
2023/09/24 10:40:05;;;;;;;9.38;2.97;;;;;;;15.80;100.00;100063.78;5067314;28;20040;-69
2023/09/24 10:42:34;;;;;;;11.13;3.17;;;;;;;15.91;100.00;100052.47;5058139;28;20057;-69
2023/09/24 10:45:06;;;;;;;8.90;2.55;;;;;;;16.01;100.00;100055.31;5072302;28;20426;-70
2023/09/24 10:47:40;;;;;;;8.75;2.90;;;;;;;16.06;100.00;100059.31;5071266;28;20467;-70
2023/09/24 10:50:09;;;;;;;9.15;2.35;;;;;;;15.95;100.00;100059.22;5070886;28;20063;-70
2023/09/24 10:52:49;;;;;;;7.38;2.28;;;;;;;16.16;100.00;100058.66;5072426;28;20063;-70
2023/09/24 10:55:35;;;;;;;10.50;2.40;;;;;;;16.09;100.00;100063.53;5057343;28;20056;-69
2023/09/24 10:58:08;;;;;;;10.98;2.88;;;;;;;16.30;100.00;100071.69;5067090;28;20051;-70
2023/09/24 11:00:35;;;;;;;9.77;3.22;;;;;;;16.19;100.00;100069.00;5065375;28;20494;-69
2023/09/24 11:03:04;;;;;;;7.75;2.72;;;;;;;16.22;100.00;100072.25;5061242;28;20048;-70
2023/09/24 11:05:41;;;;;;;10.02;3.15;;;;;;;16.18;100.00;100073.41;5071598;28;20567;-70
2023/09/24 11:08:09;;;;;;;8.23;2.70;;;;;;;16.47;100.00;100081.06;5068386;28;20044;-69
2023/09/24 11:10:36;;;;;;;11.43;3.28;;;;;;;16.44;100.00;100082.13;5073472;28;20056;-68
2023/09/24 11:13:04;;;;;;;9.70;3.05;;;;;;;16.48;100.00;100088.00;5061590;28;20052;-69
2023/09/24 11:15:36;;;;;;;11.50;3.53;;;;;;;16.49;100.00;100073.88;5059152;28;20052;-69
2023/09/24 11:18:04;;;;;;;7.13;2.40;;;;;;;16.40;100.00;100062.16;5064767;28;20132;-69
2023/09/24 11:20:33;;;;;;;11.00;2.88;;;;;;;16.37;100.00;100065.03;5071238;28;20508;-70